Olathe, KS

6:44 PM CDT on March 26, 2015 (GMT -0500)
Kansas City Downtown | | Change Station
CLOSE
Current Station
Airport
Location: Kansas City,
Elevation: 758 ft
Nearby Weather Stations

Elev 758 ft 39.12 °N, 94.60 °W | Updated 50 minutes ago

Partly Cloudy
Partly Cloudy
51 °F
Feels Like 51 °F
N
5
Wind Variable Wind from North

Today
High -- | Low -- °F
--% Chance of Precip.
Yesterday
High -- | Low -- °F
Precip. -- in
7:13 AM 7:36 PM
Waxing Crescent, 47% visible
Pressure 30.09 in
Visibility 10.0 miles
Clouds Clear
Dew Point 25 °F
Humidity 36%
Rainfall 0.00 in
Snow Depth Not available.
UV 1 out of 12
Pollen 8.10 out of 12
Air Quality Not available.
Flu Activity Not available.
METAR KMKC 262254Z AUTO 35004KT 10SM CLR 11/M04 A3008 RMK AO2 SLP187 T01061039

More Conditions Fewer Conditions

Pressure 30.09 in
Visibility 10.0 miles
Clouds Clear
Dew Point 25 °F
Humidity 36%
Rainfall 0.00 in
Snow Depth Not available.
UV 1 out of 12
Pollen 8.10 out of 12
Air Quality Not available.
Flu Activity Not available.
METAR KMKC 262254Z AUTO 35004KT 10SM CLR 11/M04 A3008 RMK AO2 SLP187 T01061039

More Conditions Fewer Conditions

10-Day Weather Forecast

Almanac

Astronomy

Mar. 26, 2015 Rise Set
Actual Time
Civil Twilight
Nautical Twilight
Astronomical Twilight
Moon
Length of Visible Light
Length of Day
Tomorrow will be .
, % of the Moon is Illuminated

Today's Extremes

State Highs State Lows

Community

WunderPhotos

Upload Photos

1,808,643 photos uploaded!

WunderBlogs® & News

Nearby

Air Quality

  Air Quality AQ Index Pollutant
Not available.

Snow Depth

Station Depth Elevation

Earthquake Activity

City Distance Mag. Time & Date
Minimum magnitude displayed is 2.5.

Coastal Water Temperatures

Place Temperature

Stations

Nearby Weather Stations

Station Location Temp. Windchill Dew Point Humidity Wind Precip. Elev Updated Type